createdAt,value
2023-04-26T00:01:46.053Z,99970.19
2023-04-26T00:04:16.410Z,99970.75
2023-04-26T00:06:47.499Z,99964.69
2023-04-26T00:09:17.347Z,99967.88
2023-04-26T00:11:47.018Z,99978.38
2023-04-26T00:14:17.149Z,99976.25
2023-04-26T00:16:46.849Z,99985.84
2023-04-26T00:19:17.558Z,99973.31
2023-04-26T00:21:47.352Z,99958.06
2023-04-26T00:24:17.608Z,99948.91
2023-04-26T00:26:47.614Z,99971.53
2023-04-26T00:29:17.289Z,99984.59
2023-04-26T00:31:47.156Z,99992.28
2023-04-26T00:34:17.357Z,99996.53
2023-04-26T00:36:47.626Z,99990.84
2023-04-26T00:39:17.762Z,99997.84
2023-04-26T00:41:47.775Z,99999.84
2023-04-26T00:44:17.506Z,99992.88
2023-04-26T00:46:47.247Z,99986.09
2023-04-26T00:49:18.808Z,100003.81
2023-04-26T00:51:49.065Z,99998.53
2023-04-26T00:54:21.341Z,99998.84
2023-04-26T00:56:54.951Z,99998.34
2023-04-26T00:59:24.571Z,100007.44
2023-04-26T01:01:54.286Z,100011.28
2023-04-26T01:04:27.862Z,100009.13
2023-04-26T01:06:57.653Z,100012.97
2023-04-26T01:09:30.412Z,100013.63
2023-04-26T01:12:02.663Z,100029.00
2023-04-26T01:14:32.736Z,100045.69
2023-04-26T01:17:03.047Z,100055.06
2023-04-26T01:19:33.878Z,100050.19
2023-04-26T01:22:07.377Z,100066.69
2023-04-26T01:24:37.164Z,100066.34
2023-04-26T01:27:07.178Z,100055.69
2023-04-26T01:29:36.891Z,100051.44
2023-04-26T01:32:07.245Z,100062.34
2023-04-26T01:34:37.112Z,100067.53
2023-04-26T01:37:06.778Z,100065.63
2023-04-26T01:39:40.174Z,100059.31
2023-04-26T01:42:09.908Z,100055.44
2023-04-26T01:44:39.593Z,100071.28
2023-04-26T01:47:09.252Z,100073.75
2023-04-26T01:49:38.904Z,100075.72
2023-04-26T01:52:08.722Z,100078.31
2023-04-26T01:54:38.509Z,100095.44
2023-04-26T01:57:08.415Z,100079.34
2023-04-26T01:59:38.049Z,100076.28
2023-04-26T02:02:08.396Z,100090.91
2023-04-26T02:04:38.511Z,100088.03
2023-04-26T02:07:08.251Z,100106.72
2023-04-26T02:09:38.000Z,100112.72
2023-04-26T02:12:07.733Z,100118.44
2023-04-26T02:14:37.646Z,100115.06
2023-04-26T02:17:08.318Z,100117.63
2023-04-26T02:19:38.091Z,100121.88
2023-04-26T02:22:07.951Z,100131.50
2023-04-26T02:24:37.713Z,100128.09
2023-04-26T02:27:07.501Z,100124.97
2023-04-26T02:29:44.394Z,100127.03
2023-04-26T02:32:15.817Z,100123.72
2023-04-26T02:34:46.484Z,100117.34
2023-04-26T02:37:16.094Z,100122.81
2023-04-26T02:39:45.696Z,100125.41
2023-04-26T02:42:15.515Z,100130.94
2023-04-26T02:44:45.258Z,100127.72
2023-04-26T02:47:15.025Z,100131.16
2023-04-26T02:49:44.739Z,100121.69
2023-04-26T02:52:14.493Z,100133.28
2023-04-26T02:54:44.199Z,100128.63
2023-04-26T02:57:14.064Z,100130.47
2023-04-26T02:59:45.517Z,100132.88
2023-04-26T03:02:15.304Z,100139.63
2023-04-26T03:04:45.120Z,100138.66
2023-04-26T03:07:14.848Z,100139.91
2023-04-26T03:09:44.625Z,100151.81
2023-04-26T03:12:14.590Z,100143.81
2023-04-26T03:14:44.226Z,100152.34
2023-04-26T03:17:13.906Z,100159.19
2023-04-26T03:19:43.612Z,100155.03
2023-04-26T03:22:17.522Z,100155.56
2023-04-26T03:24:49.239Z,100159.72
2023-04-26T03:27:18.959Z,100155.00
2023-04-26T03:29:48.761Z,100151.13
2023-04-26T03:32:18.415Z,100153.88
2023-04-26T03:34:50.241Z,100155.47
2023-04-26T03:37:19.954Z,100147.03
2023-04-26T03:39:49.641Z,100154.91
2023-04-26T03:42:19.277Z,100148.50
2023-04-26T03:44:48.930Z,100162.31
2023-04-26T03:47:18.685Z,100167.47
2023-04-26T03:49:48.318Z,100166.03
2023-04-26T03:52:18.503Z,100163.44
2023-04-26T03:54:48.355Z,100156.38
2023-04-26T03:57:18.089Z,100161.28
2023-04-26T03:59:47.696Z,100165.34
2023-04-26T04:02:17.599Z,100161.91
2023-04-26T04:04:47.827Z,100157.03
2023-04-26T04:07:18.120Z,100164.53
2023-04-26T04:09:48.106Z,100173.69
2023-04-26T04:12:17.994Z,100172.22
2023-04-26T04:14:47.719Z,100183.03
2023-04-26T04:17:17.542Z,100179.53
2023-04-26T04:19:47.764Z,100172.84
2023-04-26T04:22:17.408Z,100189.75
2023-04-26T04:24:47.128Z,100184.91
2023-04-26T04:27:17.796Z,100177.34
2023-04-26T04:29:47.779Z,100195.31
2023-04-26T04:32:18.815Z,100193.06
2023-04-26T04:34:49.579Z,100191.94
2023-04-26T04:37:19.787Z,100189.81
2023-04-26T04:39:49.466Z,100177.41
2023-04-26T04:42:22.835Z,100191.03
2023-04-26T04:44:52.494Z,100190.72
2023-04-26T04:47:22.402Z,100181.38
2023-04-26T04:49:52.506Z,100187.19
2023-04-26T04:52:23.427Z,100189.50
2023-04-26T04:54:53.106Z,100187.19
2023-04-26T04:57:22.998Z,100202.13
2023-04-26T04:59:52.930Z,100191.88
2023-04-26T05:02:22.937Z,100193.72
2023-04-26T05:04:52.849Z,100200.06
2023-04-26T05:07:24.356Z,100201.22
2023-04-26T05:09:54.234Z,100211.69
2023-04-26T05:12:23.891Z,100213.31
2023-04-26T05:14:53.662Z,100213.78
2023-04-26T05:17:23.376Z,100215.84
2023-04-26T05:19:53.036Z,100216.69
2023-04-26T05:22:23.862Z,100218.25
2023-04-26T05:24:53.848Z,100223.28
2023-04-26T05:27:23.608Z,100219.34
2023-04-26T05:29:53.302Z,100217.69
2023-04-26T05:32:23.025Z,100228.16
2023-04-26T05:34:52.681Z,100231.13
2023-04-26T05:37:22.667Z,100222.84
2023-04-26T05:39:52.577Z,100211.06
2023-04-26T05:42:22.264Z,100227.03
2023-04-26T05:44:51.988Z,100234.06
2023-04-26T05:47:21.673Z,100232.56
2023-04-26T05:52:20.272Z,100227.28
2023-04-26T05:54:49.917Z,100240.91
2023-04-26T05:59:50.198Z,100250.66
2023-04-26T06:02:20.004Z,100255.00
2023-04-26T06:04:50.032Z,100244.06
2023-04-26T06:07:19.892Z,100244.72
2023-04-26T06:09:49.626Z,100248.66
2023-04-26T06:12:21.538Z,100257.75
2023-04-26T06:14:51.192Z,100253.63
2023-04-26T06:17:21.027Z,100264.53
2023-04-26T06:19:50.831Z,100268.91
2023-04-26T06:22:20.547Z,100268.16
2023-04-26T06:24:50.259Z,100269.81
2023-04-26T06:27:19.986Z,100270.91
2023-04-26T06:29:49.956Z,100272.41
2023-04-26T06:32:19.631Z,100277.38
2023-04-26T06:34:49.290Z,100269.13
2023-04-26T06:37:18.957Z,100277.22
2023-04-26T06:39:48.558Z,100279.75
2023-04-26T06:42:18.478Z,100280.59
2023-04-26T06:44:48.090Z,100269.47
2023-04-26T06:47:18.716Z,100282.91
2023-04-26T06:49:48.426Z,100287.25
2023-04-26T06:52:19.436Z,100280.22
2023-04-26T06:54:57.148Z,100286.22
2023-04-26T06:57:28.008Z,100289.75
2023-04-26T06:59:58.665Z,100294.75
2023-04-26T07:02:28.554Z,100290.22
2023-04-26T07:04:59.283Z,100298.28
2023-04-26T07:07:29.044Z,100302.00
2023-04-26T07:09:58.742Z,100303.84
2023-04-26T07:12:28.451Z,100306.34
2023-04-26T07:14:58.174Z,100310.91
2023-04-26T07:17:28.298Z,100309.03
2023-04-26T07:19:58.054Z,100312.22
2023-04-26T07:22:27.668Z,100307.31
2023-04-26T07:24:57.382Z,100312.84
2023-04-26T07:27:27.607Z,100312.03
2023-04-26T07:30:00.968Z,100313.25
2023-04-26T07:32:30.706Z,100329.81
2023-04-26T07:35:00.496Z,100339.59
2023-04-26T07:37:30.129Z,100334.00
2023-04-26T07:39:59.816Z,100339.75
2023-04-26T07:42:29.456Z,100330.28
2023-04-26T07:44:59.165Z,100328.63
2023-04-26T07:47:28.900Z,100341.03
2023-04-26T07:49:58.582Z,100356.34
2023-04-26T07:52:28.283Z,100342.53
2023-04-26T07:54:58.045Z,100348.56
2023-04-26T07:57:27.700Z,100362.19
2023-04-26T07:59:57.346Z,100348.84
2023-04-26T08:02:37.221Z,100346.72
2023-04-26T08:05:14.786Z,100341.75
2023-04-26T08:07:44.951Z,100358.50
2023-04-26T08:10:14.691Z,100370.84
2023-04-26T08:12:44.323Z,100384.91
2023-04-26T08:15:14.615Z,100380.09
2023-04-26T08:17:44.253Z,100384.38
2023-04-26T08:20:14.565Z,100385.69
2023-04-26T08:22:44.160Z,100376.50
2023-04-26T08:25:13.778Z,100384.28
2023-04-26T08:27:43.778Z,100385.47
2023-04-26T08:30:13.890Z,100393.94
2023-04-26T08:32:43.535Z,100393.19
2023-04-26T08:35:13.625Z,100394.00
2023-04-26T08:37:43.311Z,100397.09
2023-04-26T08:40:13.176Z,100394.75
2023-04-26T08:42:45.332Z,100401.72
2023-04-26T08:45:15.051Z,100409.84
2023-04-26T08:47:47.885Z,100414.56
2023-04-26T08:50:18.470Z,100409.00
2023-04-26T08:52:49.244Z,100401.22
2023-04-26T08:55:19.276Z,100408.69
2023-04-26T08:57:49.660Z,100407.91
2023-04-26T09:00:20.264Z,100398.84
2023-04-26T09:02:54.330Z,100406.91
2023-04-26T09:05:28.323Z,100413.47
2023-04-26T09:08:05.153Z,100411.34
2023-04-26T09:10:35.005Z,100415.25
2023-04-26T09:13:04.634Z,100419.03
2023-04-26T09:15:34.361Z,100429.84
2023-04-26T09:18:23.125Z,100430.44
2023-04-26T09:21:11.445Z,100438.91
2023-04-26T09:23:58.719Z,100434.88
2023-04-26T09:26:28.501Z,100434.88
2023-04-26T09:29:20.037Z,100450.88
2023-04-26T09:31:51.099Z,100457.59
2023-04-26T09:34:20.886Z,100454.84
2023-04-26T09:37:00.181Z,100461.06
2023-04-26T09:39:37.002Z,100465.84
2023-04-26T09:42:07.574Z,100475.06
2023-04-26T09:44:37.279Z,100483.66
2023-04-26T09:47:13.955Z,100482.03
2023-04-26T09:49:52.095Z,100488.38
2023-04-26T09:52:22.048Z,100484.69
2023-04-26T09:54:55.445Z,100479.63
2023-04-26T09:57:25.123Z,100479.00
2023-04-26T09:59:56.676Z,100483.22
2023-04-26T10:02:27.931Z,100495.13
2023-04-26T10:04:58.690Z,100495.13
2023-04-26T10:07:28.931Z,100503.50
2023-04-26T10:09:58.871Z,100502.34
2023-04-26T10:12:29.018Z,100506.00
2023-04-26T10:14:59.183Z,100504.38
2023-04-26T10:17:28.900Z,100517.59
2023-04-26T10:20:00.297Z,100508.91
2023-04-26T10:22:35.285Z,100517.28
2023-04-26T10:25:05.400Z,100515.81
2023-04-26T10:27:50.053Z,100525.72
2023-04-26T10:30:21.321Z,100522.53
2023-04-26T10:32:59.775Z,100536.94
2023-04-26T10:35:30.732Z,100530.59
2023-04-26T10:38:03.434Z,100534.78
2023-04-26T10:40:35.891Z,100538.13
2023-04-26T10:43:17.577Z,100545.50
2023-04-26T10:45:47.946Z,100544.84
2023-04-26T10:48:30.221Z,100548.19
2023-04-26T10:51:02.933Z,100544.03
2023-04-26T10:53:48.288Z,100554.91
2023-04-26T10:56:29.994Z,100557.72
2023-04-26T11:01:48.440Z,100571.00
2023-04-26T11:04:18.268Z,100582.75
2023-04-26T11:06:55.219Z,100573.38
2023-04-26T11:09:43.981Z,100577.56
2023-04-26T11:12:17.999Z,100572.72
2023-04-26T11:14:48.017Z,100575.38
2023-04-26T11:17:17.778Z,100578.91
2023-04-26T11:19:49.429Z,100590.16
2023-04-26T11:22:19.070Z,100596.84
2023-04-26T11:24:48.796Z,100586.78
2023-04-26T11:27:18.387Z,100585.78
2023-04-26T11:29:48.099Z,100589.97
2023-04-26T11:32:18.041Z,100593.84
2023-04-26T11:34:52.271Z,100592.47
2023-04-26T11:37:22.079Z,100605.41
2023-04-26T11:39:52.873Z,100601.56
2023-04-26T11:42:27.749Z,100601.38
2023-04-26T11:45:00.854Z,100593.69
2023-04-26T11:47:32.422Z,100598.88
2023-04-26T11:50:02.294Z,100600.88
2023-04-26T11:52:32.703Z,100601.56
2023-04-26T11:55:08.807Z,100608.91
2023-04-26T11:57:38.487Z,100620.16
2023-04-26T12:00:17.727Z,100624.00
2023-04-26T12:02:48.618Z,100621.81
2023-04-26T12:05:34.197Z,100620.31
2023-04-26T12:08:03.931Z,100620.16
2023-04-26T12:10:40.105Z,100624.53
2023-04-26T12:13:10.936Z,100624.34
2023-04-26T12:15:40.725Z,100625.84
2023-04-26T12:18:14.212Z,100633.91
2023-04-26T12:20:44.689Z,100634.72
2023-04-26T12:23:18.377Z,100640.94
2023-04-26T12:25:58.092Z,100636.06
2023-04-26T12:28:27.760Z,100651.84
2023-04-26T12:30:57.660Z,100653.16
2023-04-26T12:33:27.433Z,100654.50
2023-04-26T12:36:00.935Z,100658.34
2023-04-26T12:38:30.761Z,100654.31
2023-04-26T12:41:00.482Z,100665.88
2023-04-26T12:43:30.186Z,100677.78
2023-04-26T12:45:59.938Z,100673.78
2023-04-26T12:48:30.472Z,100675.44
2023-04-26T12:51:00.159Z,100683.50
2023-04-26T12:53:29.919Z,100690.38
2023-04-26T12:55:59.526Z,100686.66
2023-04-26T12:58:30.208Z,100686.66
2023-04-26T13:01:00.036Z,100676.78
2023-04-26T13:03:30.551Z,100685.50
2023-04-26T13:06:00.375Z,100679.47
2023-04-26T13:08:30.550Z,100685.81
2023-04-26T13:11:00.668Z,100686.34
2023-04-26T13:13:42.359Z,100685.31
2023-04-26T13:16:13.972Z,100692.22
2023-04-26T13:18:43.713Z,100692.88
2023-04-26T13:21:13.392Z,100699.03
2023-04-26T13:23:43.050Z,100701.59
2023-04-26T13:26:12.782Z,100702.72
2023-04-26T13:28:42.450Z,100703.56
2023-04-26T13:31:13.354Z,100702.91
2023-04-26T13:33:43.042Z,100704.09
2023-04-26T13:36:13.178Z,100716.00
2023-04-26T13:38:42.840Z,100704.59
2023-04-26T13:41:12.836Z,100714.28
2023-04-26T13:43:42.573Z,100721.19
2023-04-26T13:46:12.259Z,100712.63
2023-04-26T13:48:41.976Z,100698.06
2023-04-26T13:51:12.944Z,100714.28
2023-04-26T13:53:42.834Z,100729.41
2023-04-26T13:56:12.510Z,100728.19
2023-04-26T13:58:45.192Z,100725.53
2023-04-26T14:01:15.582Z,100727.56
2023-04-26T14:03:45.453Z,100730.72
2023-04-26T14:06:15.236Z,100730.19
2023-04-26T14:08:44.948Z,100720.84
2023-04-26T14:11:15.724Z,100721.34
2023-04-26T14:13:45.356Z,100729.88
2023-04-26T14:16:15.030Z,100735.59
2023-04-26T14:18:46.799Z,100734.72
2023-04-26T14:21:16.427Z,100725.84
2023-04-26T14:23:46.282Z,100730.22
2023-04-26T14:26:15.942Z,100726.38
2023-04-26T14:28:45.627Z,100729.19
2023-04-26T14:31:15.550Z,100726.19
2023-04-26T14:33:45.205Z,100731.72
2023-04-26T14:36:14.886Z,100734.91
2023-04-26T14:38:45.738Z,100731.53
2023-04-26T14:41:18.927Z,100725.03
2023-04-26T14:43:52.373Z,100728.69
2023-04-26T14:46:22.103Z,100722.00
2023-04-26T14:48:51.756Z,100721.50
2023-04-26T14:51:21.443Z,100716.63
2023-04-26T14:53:51.177Z,100718.50
2023-04-26T14:56:20.783Z,100714.44
2023-04-26T14:58:50.532Z,100713.28
2023-04-26T15:03:48.691Z,100719.97
2023-04-26T15:06:18.486Z,100723.34
2023-04-26T15:08:48.140Z,100718.47
2023-04-26T15:11:18.013Z,100726.16
2023-04-26T15:13:47.697Z,100728.72
2023-04-26T15:16:18.358Z,100726.88
2023-04-26T15:18:48.172Z,100741.25
2023-04-26T15:21:21.426Z,100750.63
2023-04-26T15:23:51.047Z,100743.56
2023-04-26T15:26:20.741Z,100749.44
2023-04-26T15:28:50.583Z,100730.53
2023-04-26T15:31:20.283Z,100749.94
2023-04-26T15:33:50.176Z,100746.59
2023-04-26T15:36:21.838Z,100751.63
2023-04-26T15:38:51.454Z,100753.13
2023-04-26T15:41:21.388Z,100759.34
2023-04-26T15:43:55.098Z,100761.19
2023-04-26T15:46:24.813Z,100763.03
2023-04-26T15:48:54.502Z,100764.38
2023-04-26T15:51:24.186Z,100774.41
2023-04-26T15:53:54.108Z,100784.47
2023-04-26T15:56:23.807Z,100783.75
2023-04-26T15:58:53.670Z,100788.59
2023-04-26T16:01:23.588Z,100784.78
2023-04-26T16:03:54.504Z,100797.16
2023-04-26T16:06:24.408Z,100785.63
2023-04-26T16:08:54.126Z,100778.72
2023-04-26T16:11:24.617Z,100783.06
2023-04-26T16:13:54.360Z,100784.09
2023-04-26T16:18:58.734Z,100785.09
2023-04-26T16:21:30.750Z,100784.88
2023-04-26T16:24:01.601Z,100801.31
2023-04-26T16:26:31.244Z,100811.25
2023-04-26T16:29:00.918Z,100810.56
2023-04-26T16:31:30.788Z,100809.16
2023-04-26T16:34:00.794Z,100805.47
2023-04-26T16:36:30.474Z,100815.88
2023-04-26T16:39:00.133Z,100818.69
2023-04-26T16:41:29.757Z,100814.69
2023-04-26T16:43:59.401Z,100819.56
2023-04-26T16:46:29.073Z,100826.44
2023-04-26T16:48:58.764Z,100830.13
2023-04-26T16:51:29.407Z,100825.59
2023-04-26T16:53:59.463Z,100837.47
2023-04-26T16:56:29.138Z,100841.00
2023-04-26T16:58:59.167Z,100836.63
2023-04-26T17:01:29.265Z,100840.22
2023-04-26T17:03:59.075Z,100841.66
2023-04-26T17:06:28.870Z,100834.94
2023-04-26T17:08:58.550Z,100828.44
2023-04-26T17:11:28.203Z,100836.47
2023-04-26T17:13:57.898Z,100825.41
2023-04-26T17:16:27.562Z,100830.28
2023-04-26T17:18:57.158Z,100835.78
2023-04-26T17:21:26.850Z,100831.97
2023-04-26T17:23:56.568Z,100840.00
2023-04-26T17:26:26.186Z,100847.69
2023-04-26T17:28:56.188Z,100849.34
2023-04-26T17:31:25.952Z,100849.34
2023-04-26T17:33:55.746Z,100853.53
2023-04-26T17:36:25.586Z,100857.56
2023-04-26T17:38:55.297Z,100853.88
2023-04-26T17:41:25.076Z,100840.78
2023-04-26T17:43:54.720Z,100847.81
2023-04-26T17:46:24.461Z,100849.66
2023-04-26T17:48:54.224Z,100840.47
2023-04-26T17:51:23.914Z,100841.25
2023-04-26T17:53:53.596Z,100848.69
2023-04-26T17:56:23.422Z,100859.53
2023-04-26T17:58:53.036Z,100858.75
2023-04-26T18:01:22.818Z,100870.94
2023-04-26T18:03:52.865Z,100873.75
2023-04-26T18:06:24.222Z,100873.63
2023-04-26T18:08:57.156Z,100883.00
2023-04-26T18:11:27.616Z,100884.34
2023-04-26T18:13:57.306Z,100889.72
2023-04-26T18:16:27.030Z,100885.31
2023-04-26T18:18:56.640Z,100874.97
2023-04-26T18:21:26.251Z,100879.28
2023-04-26T18:23:55.932Z,100880.78
2023-04-26T18:26:25.602Z,100879.47
2023-04-26T18:28:56.718Z,100877.25
2023-04-26T18:31:26.382Z,100877.78
2023-04-26T18:33:56.079Z,100879.78
2023-04-26T18:36:25.812Z,100886.81
2023-04-26T18:38:55.873Z,100886.66
2023-04-26T18:41:28.290Z,100895.19
2023-04-26T18:43:58.019Z,100896.31
2023-04-26T18:46:28.228Z,100884.28
2023-04-26T18:48:58.819Z,100891.38
2023-04-26T18:51:28.507Z,100891.84
2023-04-26T18:53:58.469Z,100882.63
2023-04-26T18:56:28.478Z,100882.75
2023-04-26T18:58:58.202Z,100875.94
2023-04-26T19:01:27.963Z,100876.41
2023-04-26T19:03:57.781Z,100873.03
2023-04-26T19:06:27.767Z,100871.06
2023-04-26T19:08:57.560Z,100870.91
2023-04-26T19:11:27.336Z,100869.91
2023-04-26T19:13:57.022Z,100872.25
2023-04-26T19:16:26.738Z,100865.22
2023-04-26T19:18:56.668Z,100864.16
2023-04-26T19:21:26.306Z,100865.00
2023-04-26T19:23:56.070Z,100867.22
2023-04-26T19:26:25.895Z,100870.53
2023-04-26T19:28:57.328Z,100865.84
2023-04-26T19:31:26.988Z,100869.88
2023-04-26T19:33:56.662Z,100862.50
2023-04-26T19:36:26.927Z,100857.13
2023-04-26T19:38:56.608Z,100859.88
2023-04-26T19:41:26.401Z,100860.00
2023-04-26T19:43:56.067Z,100866.69
2023-04-26T19:46:25.779Z,100870.38
2023-04-26T19:48:55.496Z,100873.56
2023-04-26T19:51:25.129Z,100876.72
2023-04-26T19:53:54.812Z,100873.88
2023-04-26T19:56:24.870Z,100881.25
2023-04-26T19:58:54.526Z,100879.56
2023-04-26T20:01:24.187Z,100884.69
2023-04-26T20:03:53.967Z,100889.94
2023-04-26T20:06:23.779Z,100901.13
2023-04-26T20:08:53.425Z,100901.84
2023-04-26T20:11:23.837Z,100909.88
2023-04-26T20:13:53.772Z,100912.19
2023-04-26T20:16:23.446Z,100913.03
2023-04-26T20:18:53.594Z,100910.81
2023-04-26T20:21:23.203Z,100913.88
2023-04-26T20:23:52.837Z,100911.19
2023-04-26T20:26:22.627Z,100918.38
2023-04-26T20:28:52.372Z,100915.88
2023-04-26T20:31:22.058Z,100917.72
2023-04-26T20:33:51.712Z,100920.38
2023-04-26T20:36:21.571Z,100926.41
2023-04-26T20:38:51.253Z,100931.59
2023-04-26T20:41:20.899Z,100920.91
2023-04-26T20:43:50.759Z,100925.22
2023-04-26T20:46:20.676Z,100928.94
2023-04-26T20:48:50.595Z,100919.84
2023-04-26T20:51:20.339Z,100925.38
2023-04-26T20:53:50.038Z,100919.00
2023-04-26T20:56:19.742Z,100922.00
2023-04-26T20:58:49.353Z,100929.03
2023-04-26T21:01:19.261Z,100926.16
2023-04-26T21:03:49.061Z,100923.47
2023-04-26T21:06:18.795Z,100926.81
2023-04-26T21:08:48.480Z,100929.97
2023-04-26T21:11:18.081Z,100937.16
2023-04-26T21:13:49.609Z,100939.75
2023-04-26T21:16:19.268Z,100938.53
2023-04-26T21:18:48.925Z,100939.91
2023-04-26T21:21:18.548Z,100943.88
2023-04-26T21:23:48.259Z,100946.41
2023-04-26T21:26:17.868Z,100953.94
2023-04-26T21:28:47.901Z,100954.38
2023-04-26T21:31:17.734Z,100949.06
2023-04-26T21:33:47.506Z,100941.91
2023-04-26T21:36:17.845Z,100935.69
2023-04-26T21:38:47.571Z,100945.88
2023-04-26T21:41:17.233Z,100941.66
2023-04-26T21:43:47.329Z,100940.38
2023-04-26T21:46:17.782Z,100944.88
2023-04-26T21:48:48.737Z,100956.91
2023-04-26T21:51:18.699Z,100940.53
2023-04-26T21:53:48.488Z,100949.25
2023-04-26T21:56:18.186Z,100951.75
2023-04-26T21:58:48.083Z,100949.63
2023-04-26T22:01:18.238Z,100949.94
2023-04-26T22:03:48.507Z,100938.38
2023-04-26T22:06:18.232Z,100942.75
2023-04-26T22:08:47.964Z,100952.91
2023-04-26T22:11:17.821Z,100951.09
2023-04-26T22:13:47.547Z,100955.06
2023-04-26T22:16:17.214Z,100968.06
2023-04-26T22:18:46.939Z,100969.66
2023-04-26T22:21:16.720Z,100966.31
2023-04-26T22:23:46.390Z,100965.16
2023-04-26T22:26:16.060Z,100969.66
2023-04-26T22:28:50.390Z,100971.66
2023-04-26T22:33:54.353Z,100963.25
2023-04-26T22:36:23.955Z,100961.06
2023-04-26T22:38:54.084Z,100963.06
2023-04-26T22:41:26.719Z,100964.34
2023-04-26T22:43:56.658Z,100953.19
2023-04-26T22:46:29.239Z,100954.13
2023-04-26T22:49:01.589Z,100955.38
2023-04-26T22:51:34.049Z,100945.38
2023-04-26T22:54:05.400Z,100938.81
2023-04-26T22:56:35.147Z,100928.75
2023-04-26T22:59:04.858Z,100927.22
2023-04-26T23:01:34.572Z,100925.16
2023-04-26T23:04:04.333Z,100921.00
2023-04-26T23:06:35.243Z,100913.56
2023-04-26T23:09:04.892Z,100908.69
2023-04-26T23:11:35.015Z,100915.06
2023-04-26T23:14:07.125Z,100920.91
2023-04-26T23:16:37.132Z,100917.94
2023-04-26T23:19:06.869Z,100913.22
2023-04-26T23:21:36.628Z,100910.06
2023-04-26T23:24:06.703Z,100904.69
2023-04-26T23:26:36.371Z,100905.88
2023-04-26T23:29:05.987Z,100906.72
2023-04-26T23:31:35.785Z,100911.19
2023-04-26T23:34:05.444Z,100916.91
2023-04-26T23:36:35.448Z,100928.34
2023-04-26T23:39:05.389Z,100921.78
2023-04-26T23:41:35.079Z,100914.28
2023-04-26T23:44:05.013Z,100915.28
2023-04-26T23:46:34.698Z,100921.47
2023-04-26T23:49:04.406Z,100916.25
2023-04-26T23:51:34.394Z,100926.50
2023-04-26T23:54:04.045Z,100933.94
2023-04-26T23:56:34.144Z,100937.72
2023-04-26T23:59:03.807Z,100940.09
